createdAt,value
2023-03-28T00:00:33.511Z,0.28
2023-03-28T00:03:00.405Z,0.22
2023-03-28T00:05:28.174Z,0.38
2023-03-28T00:07:56.648Z,0.32
2023-03-28T00:10:24.074Z,0.31
2023-03-28T00:12:50.994Z,0.34
2023-03-28T00:15:17.732Z,0.30
2023-03-28T00:17:44.522Z,0.30
2023-03-28T00:20:13.050Z,0.27
2023-03-28T00:22:40.213Z,0.22
2023-03-28T00:25:09.115Z,0.25
2023-03-28T00:27:36.354Z,0.32
2023-03-28T00:30:05.431Z,0.25
2023-03-28T00:32:32.181Z,0.25
2023-03-28T00:34:58.860Z,0.21
2023-03-28T00:37:25.587Z,0.19
2023-03-28T00:39:53.840Z,0.10
2023-03-28T00:42:22.266Z,0.10
2023-03-28T00:44:52.736Z,0.02
2023-03-28T00:47:28.507Z,0.04
2023-03-28T00:50:03.439Z,0.00
2023-03-28T00:52:39.940Z,0.09
2023-03-28T00:55:12.368Z,-0.01
2023-03-28T00:57:40.208Z,0.04
2023-03-28T01:00:12.291Z,-0.04
2023-03-28T01:02:45.717Z,-0.08
2023-03-28T01:05:13.858Z,-0.10
2023-03-28T01:07:46.761Z,-0.12
2023-03-28T01:10:13.638Z,-0.13
2023-03-28T01:12:43.331Z,-0.17
2023-03-28T01:15:10.897Z,-0.21
2023-03-28T01:17:37.951Z,-0.23
2023-03-28T01:20:37.027Z,-0.25
2023-03-28T01:23:51.062Z,-0.32
2023-03-28T01:26:38.853Z,-0.30
2023-03-28T01:29:29.821Z,-0.36
2023-03-28T01:32:24.085Z,-0.35
2023-03-28T01:35:05.793Z,-0.39
2023-03-28T01:38:10.854Z,-0.39
2023-03-28T01:41:28.747Z,-0.35
2023-03-28T01:44:03.990Z,-0.33
2023-03-28T01:47:05.916Z,-0.45
2023-03-28T01:49:52.072Z,-0.53
2023-03-28T01:52:42.299Z,-0.45
2023-03-28T01:55:17.194Z,-0.42
2023-03-28T01:57:49.756Z,-0.34
2023-03-28T02:00:38.170Z,-0.45
2023-03-28T02:03:33.812Z,-0.30
2023-03-28T02:06:01.704Z,-0.35
2023-03-28T02:08:32.528Z,-0.33
2023-03-28T02:10:59.213Z,-0.36
2023-03-28T02:13:40.475Z,-0.46
2023-03-28T02:16:10.392Z,-0.41
2023-03-28T02:18:41.677Z,-0.54
2023-03-28T02:21:19.178Z,-0.58
2023-03-28T02:23:48.512Z,-0.60
2023-03-28T02:26:15.331Z,-0.68
2023-03-28T02:28:44.038Z,-0.64
2023-03-28T02:31:13.767Z,-0.66
2023-03-28T02:33:40.422Z,-0.79
2023-03-28T02:36:17.474Z,-0.76
2023-03-28T02:39:11.548Z,-0.89
2023-03-28T02:42:15.934Z,-0.81
2023-03-28T02:45:10.177Z,-0.84
2023-03-28T02:48:01.722Z,-0.91
2023-03-28T02:50:43.321Z,-0.90
2023-03-28T02:53:32.896Z,-0.78
2023-03-28T02:56:09.817Z,-0.89
2023-03-28T02:58:48.709Z,-0.94
2023-03-28T03:01:15.505Z,-0.97
2023-03-28T03:03:43.740Z,-0.99
2023-03-28T03:06:12.546Z,-1.07
2023-03-28T03:08:39.367Z,-1.03
2023-03-28T03:11:06.558Z,-1.01
2023-03-28T03:13:33.253Z,-0.97
2023-03-28T03:16:00.338Z,-1.03
2023-03-28T03:18:27.621Z,-1.02
2023-03-28T03:20:54.818Z,-1.10
2023-03-28T03:23:21.669Z,-1.19
2023-03-28T03:25:50.682Z,-1.19
2023-03-28T03:28:17.486Z,-1.19
2023-03-28T03:30:44.462Z,-1.16
2023-03-28T03:33:11.363Z,-1.16
2023-03-28T03:35:45.913Z,-1.25
2023-03-28T03:38:13.517Z,-1.30
2023-03-28T03:40:40.651Z,-1.34
2023-03-28T03:43:07.440Z,-1.44
2023-03-28T03:45:34.168Z,-1.45
2023-03-28T03:48:01.008Z,-1.45
2023-03-28T03:50:27.719Z,-1.45
2023-03-28T03:52:54.453Z,-1.47
2023-03-28T03:55:21.128Z,-1.49
2023-03-28T03:57:47.782Z,-1.44
2023-03-28T04:00:14.824Z,-1.46
2023-03-28T04:02:41.666Z,-1.49
2023-03-28T04:05:08.838Z,-1.50
2023-03-28T04:07:36.567Z,-1.51
2023-03-28T04:10:04.598Z,-1.54
2023-03-28T04:12:31.510Z,-1.60
2023-03-28T04:14:58.361Z,-1.67
2023-03-28T04:17:29.855Z,-1.76
2023-03-28T04:19:57.090Z,-1.77
2023-03-28T04:22:29.930Z,-1.82
2023-03-28T04:24:57.248Z,-1.87
2023-03-28T04:27:26.241Z,-1.84
2023-03-28T04:29:56.421Z,-2.08
2023-03-28T04:32:24.403Z,-2.01
2023-03-28T04:34:51.318Z,-2.03
2023-03-28T04:37:18.812Z,-2.05
2023-03-28T04:39:47.632Z,-2.02
2023-03-28T04:42:15.477Z,-2.20
2023-03-28T04:44:42.715Z,-2.24
2023-03-28T04:47:11.731Z,-2.24
2023-03-28T04:49:39.007Z,-2.28
2023-03-28T04:52:06.819Z,-2.40
2023-03-28T04:54:33.691Z,-2.46
2023-03-28T04:57:02.423Z,-2.37
2023-03-28T04:59:29.528Z,-2.27
2023-03-28T05:01:56.505Z,-2.25
2023-03-28T05:04:25.793Z,-2.19
2023-03-28T05:06:52.509Z,-2.17
2023-03-28T05:09:19.759Z,-2.13
2023-03-28T05:11:46.749Z,-2.22
2023-03-28T05:14:13.885Z,-2.17
2023-03-28T05:16:41.075Z,-2.12
2023-03-28T05:19:09.975Z,-2.08
2023-03-28T05:21:37.078Z,-2.19
2023-03-28T05:24:04.009Z,-2.04
2023-03-28T05:26:30.689Z,-2.15
2023-03-28T05:28:57.399Z,-2.13
2023-03-28T05:31:26.070Z,-2.03
2023-03-28T05:33:52.988Z,-2.07
2023-03-28T05:36:20.671Z,-1.99
2023-03-28T05:38:47.598Z,-1.91
2023-03-28T05:41:15.570Z,-1.88
2023-03-28T05:43:42.328Z,-1.88
2023-03-28T05:46:09.131Z,-1.75
2023-03-28T05:48:36.930Z,-1.63
2023-03-28T05:51:04.725Z,-1.56
2023-03-28T05:53:31.433Z,-1.46
2023-03-28T05:55:58.136Z,-1.39
2023-03-28T05:58:24.903Z,-1.37
2023-03-28T06:00:52.412Z,-1.24
2023-03-28T06:03:19.233Z,-1.16
2023-03-28T06:05:46.115Z,-1.08
2023-03-28T06:08:12.936Z,-0.95
2023-03-28T06:10:39.970Z,-0.89
2023-03-28T06:13:06.737Z,-0.56
2023-03-28T06:15:33.432Z,0.08
2023-03-28T06:18:00.431Z,1.07
2023-03-28T06:20:27.529Z,1.91
2023-03-28T06:22:54.159Z,2.35
2023-03-28T06:25:21.038Z,3.21
2023-03-28T06:27:47.708Z,3.34
2023-03-28T06:30:14.964Z,3.27
2023-03-28T06:32:41.657Z,3.17
2023-03-28T06:35:08.674Z,3.09
2023-03-28T06:37:35.379Z,3.08
2023-03-28T06:40:03.185Z,2.94
2023-03-28T06:42:29.886Z,2.83
2023-03-28T06:44:56.636Z,2.82
2023-03-28T06:47:23.311Z,2.91
2023-03-28T06:49:50.018Z,3.00
2023-03-28T06:52:17.292Z,2.81
2023-03-28T06:54:44.934Z,2.53
2023-03-28T06:57:12.705Z,2.48
2023-03-28T06:59:39.390Z,2.30
2023-03-28T07:02:06.753Z,2.19
2023-03-28T07:04:34.992Z,2.18
2023-03-28T07:07:01.990Z,2.22
2023-03-28T07:09:28.733Z,2.37
2023-03-28T07:11:55.681Z,2.44
2023-03-28T07:14:22.558Z,2.46
2023-03-28T07:16:49.309Z,2.68
2023-03-28T07:19:16.111Z,2.83
2023-03-28T07:21:42.812Z,2.89
2023-03-28T07:24:09.553Z,2.96
2023-03-28T07:26:36.250Z,3.12
2023-03-28T07:29:03.089Z,3.13
2023-03-28T07:31:30.139Z,3.26
2023-03-28T07:33:58.219Z,3.43
2023-03-28T07:36:27.261Z,3.61
2023-03-28T07:38:53.993Z,3.73
2023-03-28T07:41:22.509Z,3.69
2023-03-28T07:43:49.677Z,3.84
2023-03-28T07:46:16.557Z,4.02
2023-03-28T07:48:45.560Z,3.99
2023-03-28T07:51:13.007Z,4.03
2023-03-28T07:53:39.677Z,4.23
2023-03-28T07:56:12.106Z,4.09
2023-03-28T07:58:40.910Z,4.05
2023-03-28T08:01:09.712Z,4.27
2023-03-28T08:03:37.142Z,4.29
2023-03-28T08:06:13.444Z,4.45
2023-03-28T08:08:47.158Z,4.64
2023-03-28T08:11:13.895Z,4.83
2023-03-28T08:13:41.134Z,4.80
2023-03-28T08:16:08.460Z,5.05
2023-03-28T08:18:35.261Z,4.94
2023-03-28T08:21:03.848Z,5.10
2023-03-28T08:23:30.778Z,5.14
2023-03-28T08:26:06.245Z,5.42
2023-03-28T08:28:34.601Z,5.43
2023-03-28T08:31:02.118Z,5.81
2023-03-28T08:33:29.150Z,5.65
2023-03-28T08:35:58.563Z,5.40
2023-03-28T08:38:25.559Z,5.36
2023-03-28T08:41:05.424Z,5.40
2023-03-28T08:43:55.967Z,6.32
2023-03-28T08:46:25.600Z,6.22
2023-03-28T08:48:53.782Z,6.53
2023-03-28T08:51:26.770Z,6.95
2023-03-28T08:54:11.681Z,5.74
2023-03-28T08:56:51.386Z,6.06
2023-03-28T08:59:26.551Z,6.27
2023-03-28T09:01:53.334Z,6.78
2023-03-28T09:04:35.118Z,6.43
2023-03-28T09:07:09.783Z,7.38
2023-03-28T09:09:49.135Z,7.72
2023-03-28T09:12:46.058Z,7.12
2023-03-28T09:15:16.197Z,6.52
2023-03-28T09:18:07.326Z,6.38
2023-03-28T09:21:02.000Z,6.45
2023-03-28T09:24:06.402Z,7.28
2023-03-28T09:26:47.147Z,7.96
2023-03-28T09:29:19.484Z,8.30
2023-03-28T09:31:51.347Z,7.28
2023-03-28T09:34:27.415Z,7.24
2023-03-28T09:37:02.631Z,7.14
2023-03-28T09:39:39.442Z,6.74
2023-03-28T09:42:29.923Z,7.14
2023-03-28T09:45:18.148Z,7.20
2023-03-28T09:47:49.570Z,7.18
2023-03-28T09:50:18.282Z,6.72
2023-03-28T09:52:46.765Z,6.97
2023-03-28T09:55:17.259Z,6.54
2023-03-28T09:58:09.961Z,6.75
2023-03-28T10:00:40.636Z,7.22
2023-03-28T10:03:23.249Z,6.97
2023-03-28T10:05:51.746Z,7.25
2023-03-28T10:08:25.981Z,7.17
2023-03-28T10:11:17.176Z,8.13
2023-03-28T10:13:48.947Z,8.37
2023-03-28T10:16:33.885Z,8.67
2023-03-28T10:19:00.652Z,9.03
2023-03-28T10:21:32.011Z,7.81
2023-03-28T10:24:04.346Z,8.11
2023-03-28T10:26:31.655Z,8.02
2023-03-28T10:29:04.617Z,7.96
2023-03-28T10:31:33.976Z,7.53
2023-03-28T10:34:02.828Z,7.73
2023-03-28T10:36:51.864Z,8.32
2023-03-28T10:39:23.388Z,8.55
2023-03-28T10:41:55.704Z,8.43
2023-03-28T10:44:35.874Z,8.29
2023-03-28T10:47:07.330Z,8.54
2023-03-28T10:49:55.547Z,8.01
2023-03-28T10:52:40.624Z,8.68
2023-03-28T10:55:30.971Z,9.18
2023-03-28T10:58:07.718Z,9.34
2023-03-28T11:01:18.233Z,8.54
2023-03-28T11:04:18.731Z,8.18
2023-03-28T11:07:16.616Z,8.62
2023-03-28T11:09:51.984Z,8.31
2023-03-28T11:12:28.322Z,8.07
2023-03-28T11:15:09.347Z,7.94
2023-03-28T11:18:08.939Z,7.81
2023-03-28T11:21:23.736Z,7.67
2023-03-28T11:24:10.301Z,7.46
2023-03-28T11:26:46.317Z,7.41
2023-03-28T11:29:42.615Z,7.49
2023-03-28T11:32:22.992Z,7.40
2023-03-28T11:34:56.007Z,7.30
2023-03-28T11:37:28.071Z,7.35
2023-03-28T11:39:58.578Z,7.57
2023-03-28T11:42:33.352Z,7.59
2023-03-28T11:45:08.079Z,7.57
2023-03-28T11:47:40.380Z,7.63
2023-03-28T11:50:28.378Z,7.66
2023-03-28T11:53:01.751Z,7.93
2023-03-28T11:55:37.306Z,8.11
2023-03-28T11:58:06.973Z,8.54
2023-03-28T12:00:42.930Z,8.82
2023-03-28T12:03:21.323Z,8.22
2023-03-28T12:06:22.547Z,8.12
2023-03-28T12:09:11.172Z,8.07
2023-03-28T12:11:50.268Z,7.97
2023-03-28T12:14:36.967Z,7.67
2023-03-28T12:17:13.906Z,7.53
2023-03-28T12:19:41.252Z,7.35
2023-03-28T12:22:16.175Z,7.48
2023-03-28T12:25:00.417Z,7.54
2023-03-28T12:27:52.373Z,7.44
2023-03-28T12:30:43.001Z,7.28
2023-03-28T12:33:23.037Z,7.15
2023-03-28T12:36:03.510Z,6.70
2023-03-28T12:38:55.951Z,6.55
2023-03-28T12:41:37.624Z,6.31
2023-03-28T12:44:27.101Z,6.22
2023-03-28T12:46:59.897Z,5.75
2023-03-28T12:49:35.779Z,5.76
2023-03-28T12:52:06.440Z,5.63
2023-03-28T12:54:34.742Z,5.64
2023-03-28T12:57:07.401Z,5.89
2023-03-28T12:59:40.103Z,5.80
2023-03-28T13:02:17.797Z,6.01
2023-03-28T13:05:08.919Z,6.30
2023-03-28T13:08:09.625Z,6.66
2023-03-28T13:10:41.179Z,6.69
2023-03-28T13:13:28.290Z,6.75
2023-03-28T13:16:04.393Z,6.84
2023-03-28T13:18:33.874Z,6.71
2023-03-28T13:21:04.732Z,6.66
2023-03-28T13:23:35.074Z,6.76
2023-03-28T13:26:05.056Z,6.69
2023-03-28T13:28:58.985Z,6.73
2023-03-28T13:31:26.619Z,6.68
2023-03-28T13:33:55.143Z,6.68
2023-03-28T13:36:25.086Z,6.86
2023-03-28T13:39:10.064Z,6.98
2023-03-28T13:41:42.769Z,7.07
2023-03-28T13:44:15.522Z,7.17
2023-03-28T13:46:44.934Z,7.09
2023-03-28T13:49:17.645Z,6.98
2023-03-28T13:51:52.214Z,7.23
2023-03-28T13:54:19.533Z,7.15
2023-03-28T13:56:48.879Z,7.25
2023-03-28T13:59:19.726Z,7.33
2023-03-28T14:01:57.475Z,7.53
2023-03-28T14:04:30.876Z,7.39
2023-03-28T14:06:58.117Z,7.21
2023-03-28T14:09:27.789Z,7.25
2023-03-28T14:12:12.091Z,7.51
2023-03-28T14:14:42.628Z,7.60
2023-03-28T14:17:22.010Z,7.83
2023-03-28T14:20:07.293Z,7.74
2023-03-28T14:22:52.761Z,7.94
2023-03-28T14:25:26.382Z,7.67
2023-03-28T14:27:55.213Z,7.62
2023-03-28T14:30:26.066Z,7.53
2023-03-28T14:33:01.868Z,7.59
2023-03-28T14:35:31.742Z,7.50
2023-03-28T14:38:01.017Z,7.43
2023-03-28T14:40:39.895Z,7.35
2023-03-28T14:43:20.384Z,7.27
2023-03-28T14:45:52.783Z,7.22
2023-03-28T14:48:24.380Z,7.23
2023-03-28T14:50:53.640Z,7.15
2023-03-28T14:53:28.807Z,7.15
2023-03-28T14:56:08.838Z,7.12
2023-03-28T14:58:39.374Z,7.27
2023-03-28T15:01:08.288Z,7.37
2023-03-28T15:03:39.144Z,7.48
2023-03-28T15:06:08.175Z,7.53
2023-03-28T15:08:42.109Z,7.66
2023-03-28T15:11:15.747Z,7.50
2023-03-28T15:13:46.691Z,7.40
2023-03-28T15:16:24.075Z,7.46
2023-03-28T15:19:07.151Z,7.62
2023-03-28T15:21:39.456Z,7.64
2023-03-28T15:24:08.553Z,7.71
2023-03-28T15:26:38.707Z,7.69
2023-03-28T15:29:07.863Z,7.68
2023-03-28T15:31:39.866Z,7.74
2023-03-28T15:34:11.840Z,7.69
2023-03-28T15:36:48.709Z,7.73
2023-03-28T15:39:27.452Z,7.97
2023-03-28T15:42:04.296Z,8.00
2023-03-28T15:44:32.968Z,7.87
2023-03-28T15:47:12.163Z,7.94
2023-03-28T15:49:39.365Z,8.41
2023-03-28T15:52:18.851Z,8.39
2023-03-28T15:54:51.189Z,8.37
2023-03-28T15:57:27.446Z,8.08
2023-03-28T15:59:56.156Z,8.10
2023-03-28T16:02:22.808Z,7.85
2023-03-28T16:05:27.648Z,7.79
2023-03-28T16:07:54.487Z,7.61
2023-03-28T16:10:24.223Z,7.35
2023-03-28T16:12:51.845Z,7.31
2023-03-28T16:15:19.869Z,7.20
2023-03-28T16:17:47.453Z,7.16
2023-03-28T16:20:19.797Z,7.09
2023-03-28T16:22:46.919Z,7.02
2023-03-28T16:25:14.117Z,7.02
2023-03-28T16:27:42.467Z,6.98
2023-03-28T16:30:37.389Z,6.99
2023-03-28T16:33:05.976Z,6.95
2023-03-28T16:35:34.099Z,6.90
2023-03-28T16:38:01.219Z,6.89
2023-03-28T16:40:28.255Z,6.90
2023-03-28T16:42:55.533Z,6.89
2023-03-28T16:45:22.968Z,6.85
2023-03-28T16:47:49.874Z,6.84
2023-03-28T16:50:17.120Z,6.89
2023-03-28T16:52:43.853Z,6.82
2023-03-28T16:55:14.235Z,6.74
2023-03-28T16:57:42.067Z,6.68
2023-03-28T17:00:13.623Z,6.61
2023-03-28T17:02:40.599Z,6.59
2023-03-28T17:05:07.852Z,6.54
2023-03-28T17:07:34.519Z,6.49
2023-03-28T17:10:01.218Z,6.50
2023-03-28T17:12:29.573Z,6.44
2023-03-28T17:14:56.310Z,6.40
2023-03-28T17:17:23.142Z,6.40
2023-03-28T17:19:50.446Z,6.36
2023-03-28T17:22:17.503Z,6.33
2023-03-28T17:24:46.794Z,6.39
2023-03-28T17:27:14.421Z,6.30
2023-03-28T17:29:41.183Z,6.29
2023-03-28T17:32:08.104Z,6.21
2023-03-28T17:34:35.947Z,6.18
2023-03-28T17:37:02.709Z,6.18
2023-03-28T17:39:29.387Z,6.08
2023-03-28T17:41:56.044Z,6.05
2023-03-28T17:44:22.748Z,6.01
2023-03-28T17:46:49.623Z,5.95
2023-03-28T17:49:18.117Z,5.95
2023-03-28T17:51:45.534Z,5.92
2023-03-28T17:54:12.266Z,5.88
2023-03-28T17:56:39.667Z,5.85
2023-03-28T17:59:06.872Z,5.80
2023-03-28T18:01:33.860Z,5.75
2023-03-28T18:04:01.203Z,5.70
2023-03-28T18:06:28.002Z,5.62
2023-03-28T18:08:54.849Z,5.56
2023-03-28T18:11:23.001Z,5.58
2023-03-28T18:13:52.662Z,5.50
2023-03-28T18:16:19.484Z,5.48
2023-03-28T18:18:46.650Z,5.39
2023-03-28T18:21:13.817Z,5.32
2023-03-28T18:23:40.951Z,5.22
2023-03-28T18:26:08.166Z,5.20
2023-03-28T18:28:36.875Z,5.20
2023-03-28T18:31:17.517Z,5.19
2023-03-28T18:33:44.569Z,5.18
2023-03-28T18:36:12.804Z,5.17
2023-03-28T18:38:42.724Z,5.16
2023-03-28T18:41:10.563Z,5.16
2023-03-28T18:43:38.628Z,5.15
2023-03-28T18:46:07.782Z,5.14
2023-03-28T18:48:35.611Z,5.16
2023-03-28T18:51:03.300Z,5.07
2023-03-28T18:53:30.334Z,5.08
2023-03-28T18:55:56.995Z,4.97
2023-03-28T18:58:24.039Z,4.91
2023-03-28T19:00:58.529Z,4.91
2023-03-28T19:03:30.105Z,4.85
2023-03-28T19:06:01.654Z,4.78
2023-03-28T19:08:30.066Z,4.75
2023-03-28T19:10:59.153Z,4.70
2023-03-28T19:13:27.116Z,4.61
2023-03-28T19:16:01.932Z,4.64
2023-03-28T19:18:29.295Z,4.59
2023-03-28T19:20:57.001Z,4.58
2023-03-28T19:23:25.314Z,4.59
2023-03-28T19:25:52.497Z,4.60
2023-03-28T19:28:19.871Z,4.70
2023-03-28T19:30:46.901Z,4.73
2023-03-28T19:33:14.022Z,4.77
2023-03-28T19:35:42.365Z,4.75
2023-03-28T19:38:09.124Z,4.69
2023-03-28T19:40:35.887Z,4.67
2023-03-28T19:43:02.815Z,4.81
2023-03-28T19:45:30.062Z,4.79
2023-03-28T19:48:00.958Z,4.78
2023-03-28T19:50:27.646Z,4.73
2023-03-28T19:52:54.328Z,4.75
2023-03-28T19:55:21.172Z,4.76
2023-03-28T19:57:47.874Z,4.75
2023-03-28T20:00:14.896Z,4.74
2023-03-28T20:02:41.821Z,4.77
2023-03-28T20:05:09.238Z,4.86
2023-03-28T20:07:35.885Z,4.94
2023-03-28T20:10:02.811Z,4.99
2023-03-28T20:12:29.575Z,4.97
2023-03-28T20:14:57.061Z,4.96
2023-03-28T20:17:23.896Z,5.06
2023-03-28T20:19:51.687Z,5.03
2023-03-28T20:22:20.097Z,5.16
2023-03-28T20:24:48.873Z,5.08
2023-03-28T20:27:17.006Z,5.12
2023-03-28T20:29:45.479Z,5.10
2023-03-28T20:32:12.126Z,5.20
2023-03-28T20:34:38.845Z,5.16
2023-03-28T20:37:05.518Z,5.16
2023-03-28T20:39:35.163Z,5.22
2023-03-28T20:42:05.591Z,5.21
2023-03-28T20:44:38.273Z,5.31
2023-03-28T20:47:07.796Z,5.26
2023-03-28T20:49:35.962Z,5.35
2023-03-28T20:52:02.762Z,5.34
2023-03-28T20:54:29.533Z,5.33
2023-03-28T20:56:56.260Z,5.31
2023-03-28T20:59:23.799Z,5.35
2023-03-28T21:01:51.458Z,5.36
2023-03-28T21:04:18.161Z,5.44
2023-03-28T21:06:46.016Z,5.37
2023-03-28T21:09:18.116Z,5.56
2023-03-28T21:11:45.117Z,5.43
2023-03-28T21:14:14.109Z,5.61
2023-03-28T21:16:41.170Z,5.68
2023-03-28T21:19:08.690Z,5.73
2023-03-28T21:21:35.590Z,5.74
2023-03-28T21:24:03.184Z,5.77
2023-03-28T21:26:31.241Z,5.77
2023-03-28T21:28:58.771Z,5.66
2023-03-28T21:31:28.592Z,5.65
2023-03-28T21:34:01.009Z,5.78
2023-03-28T21:36:28.212Z,5.68
2023-03-28T21:38:56.304Z,5.74
2023-03-28T21:41:23.507Z,5.69
2023-03-28T21:43:51.810Z,5.57
2023-03-28T21:46:19.042Z,5.54
2023-03-28T21:48:47.903Z,5.51
2023-03-28T21:51:16.039Z,5.71
2023-03-28T21:53:42.809Z,5.54
2023-03-28T21:56:12.654Z,5.62
2023-03-28T21:58:39.387Z,5.67
2023-03-28T22:01:06.660Z,5.76
2023-03-28T22:03:37.296Z,5.74
2023-03-28T22:06:04.794Z,5.52
2023-03-28T22:08:31.528Z,5.83
2023-03-28T22:11:01.444Z,5.91
2023-03-28T22:13:29.766Z,5.55
2023-03-28T22:15:58.435Z,5.47
2023-03-28T22:18:26.236Z,5.54
2023-03-28T22:20:53.562Z,5.26
2023-03-28T22:23:22.562Z,5.43
2023-03-28T22:25:50.046Z,5.37
2023-03-28T22:28:17.161Z,5.43
2023-03-28T22:30:44.155Z,5.31
2023-03-28T22:33:11.211Z,5.46
2023-03-28T22:35:38.390Z,5.40
2023-03-28T22:38:05.779Z,5.43
2023-03-28T22:40:32.950Z,5.20
2023-03-28T22:43:00.216Z,5.17
2023-03-28T22:45:27.482Z,5.23
2023-03-28T22:47:58.378Z,5.20
2023-03-28T22:50:25.176Z,5.13
2023-03-28T22:52:52.887Z,5.22
2023-03-28T22:55:22.440Z,5.27
2023-03-28T22:57:54.006Z,5.18
2023-03-28T23:00:24.111Z,5.21
2023-03-28T23:02:52.324Z,5.33
2023-03-28T23:05:20.126Z,5.17
2023-03-28T23:07:47.334Z,5.17
2023-03-28T23:10:16.967Z,5.03
2023-03-28T23:12:44.522Z,4.97
2023-03-28T23:15:11.864Z,4.99
2023-03-28T23:17:38.827Z,4.95
2023-03-28T23:20:12.327Z,4.95
2023-03-28T23:22:43.726Z,5.10
2023-03-28T23:25:12.801Z,5.09
2023-03-28T23:27:39.872Z,5.11
2023-03-28T23:30:07.888Z,4.94
2023-03-28T23:32:34.709Z,5.04
2023-03-28T23:35:01.549Z,4.87
2023-03-28T23:37:28.330Z,4.89
2023-03-28T23:39:55.723Z,4.89
2023-03-28T23:42:23.714Z,4.91
2023-03-28T23:44:51.774Z,4.87
2023-03-28T23:47:20.402Z,4.79
2023-03-28T23:49:47.726Z,4.70
2023-03-28T23:52:16.392Z,4.82
2023-03-28T23:54:43.490Z,4.93
2023-03-28T23:57:10.290Z,4.76
2023-03-28T23:59:37.131Z,4.88
